Time;durP1;ratioP1;P1;durP2;ratioP2;P2;SDS_P1;SDS_P2;PMS_P1;PMS_P2;Temp;Humidity;BMP_temperature;BMP_pressure;BME280_temperature;BME280_humidity;BME280_pressure;Samples;Min_cycle;Max_cycle;Signal;HPM_P1;HPM_P2
2022/09/25 00:01:19;;;;;;;;;;;20.80;83.40;;;;;;5086889;28;19912;-47
2022/09/25 00:03:45;;;;;;;;;;;20.70;83.60;;;;;;5115220;28;20366;-49
2022/09/25 00:06:12;;;;;;;;;;;20.60;83.70;;;;;;5115088;28;19919;-48
2022/09/25 00:08:38;;;;;;;;;;;20.60;83.90;;;;;;5096806;28;19914;-48
2022/09/25 00:11:12;;;;;;;;;;;20.60;84.00;;;;;;5114860;28;19908;-49
2022/09/25 00:13:39;;;;;;;;;;;20.50;84.10;;;;;;5115193;28;19912;-48
2022/09/25 00:16:04;;;;;;;;;;;20.50;84.20;;;;;;5114912;28;19915;-49
2022/09/25 00:21:16;;;;;;;;;;;20.40;84.30;;;;;;5115140;28;20369;-49
2022/09/25 00:23:43;;;;;;;;;;;20.40;84.40;;;;;;5115024;28;20455;-48
2022/09/25 00:26:10;;;;;;;;;;;20.40;84.40;;;;;;5114953;28;19939;-48
2022/09/25 00:28:36;;;;;;;;;;;20.40;84.40;;;;;;5114836;28;19995;-49
2022/09/25 00:31:03;;;;;;;;;;;20.50;84.40;;;;;;5114803;28;19933;-51
2022/09/25 00:33:29;;;;;;;;;;;20.60;84.30;;;;;;5114245;28;19908;-48
2022/09/25 00:35:55;;;;;;;;;;;20.60;84.10;;;;;;5114798;28;19914;-46
2022/09/25 00:38:20;;;;;;;;;;;20.70;84.00;;;;;;5114535;28;19916;-47
2022/09/25 00:40:45;;;;;;;;;;;20.80;83.70;;;;;;5096428;28;19915;-46
2022/09/25 00:43:14;;;;;;;;;;;20.80;83.60;;;;;;5114640;28;19912;-48
2022/09/25 00:45:41;;;;;;;;;;;20.80;83.60;;;;;;5114226;28;19919;-50
2022/09/25 00:48:09;;;;;;;;;;;20.80;83.60;;;;;;5096232;28;20296;-49
2022/09/25 00:50:45;;;;;;;;;;;20.80;83.80;;;;;;5114560;28;19908;-47
2022/09/25 00:53:18;;;;;;;;;;;20.70;83.80;;;;;;5096331;28;19912;-47
2022/09/25 00:55:44;;;;;;;;;;;20.70;83.90;;;;;;5114353;28;19966;-47
2022/09/25 00:58:10;;;;;;;;;;;20.70;83.90;;;;;;5096066;28;20364;-48
2022/09/25 01:00:36;;;;;;;;;;;20.70;84.10;;;;;;5110015;28;20037;-50
2022/09/25 01:03:03;;;;;;;;;;;20.60;84.10;;;;;;5093805;28;19951;-49
2022/09/25 01:05:30;;;;;;;;;;;20.60;84.30;;;;;;5094259;28;20007;-49
2022/09/25 01:07:58;;;;;;;;;;;20.60;84.40;;;;;;5094299;28;19915;-52
2022/09/25 01:10:24;;;;;;;;;;;20.50;84.50;;;;;;5093739;28;19912;-49
2022/09/25 01:12:50;;;;;;;;;;;20.50;84.60;;;;;;5093637;28;20252;-48
2022/09/25 01:15:17;;;;;;;;;;;20.50;84.80;;;;;;5093760;28;19912;-47
2022/09/25 01:17:47;;;;;;;;;;;20.40;84.70;;;;;;5094146;28;19915;-51
2022/09/25 01:20:24;;;;;;;;;;;20.40;84.80;;;;;;5093580;28;19912;-48
2022/09/25 01:22:49;;;;;;;;;;;20.40;84.90;;;;;;5094164;28;19931;-47
2022/09/25 01:25:33;;;;;;;;;;;20.40;85.00;;;;;;5093872;28;19934;-46
2022/09/25 01:27:58;;;;;;;;;;;20.40;85.00;;;;;;5093942;28;19969;-48
2022/09/25 01:30:24;;;;;;;;;;;20.40;84.90;;;;;;5093604;28;19908;-48
2022/09/25 01:32:57;;;;;;;;;;;20.50;84.70;;;;;;5093750;28;19908;-49
2022/09/25 01:35:30;;;;;;;;;;;20.60;84.50;;;;;;5093467;28;19931;-48
2022/09/25 01:38:07;;;;;;;;;;;20.70;84.20;;;;;;5093790;28;19908;-47
2022/09/25 01:40:45;;;;;;;;;;;20.80;84.00;;;;;;5093813;28;19912;-50
2022/09/25 01:43:15;;;;;;;;;;;20.80;83.80;;;;;;5093575;28;19912;-47
2022/09/25 01:45:44;;;;;;;;;;;20.90;83.70;;;;;;5097400;28;19909;-47
2022/09/25 01:48:12;;;;;;;;;;;20.90;83.70;;;;;;5097416;28;19940;-48
2022/09/25 01:50:41;;;;;;;;;;;20.80;83.80;;;;;;5097155;28;19999;-47
2022/09/25 01:53:08;;;;;;;;;;;20.80;83.90;;;;;;5097545;28;19908;-47
2022/09/25 01:55:37;;;;;;;;;;;20.80;84.00;;;;;;5097086;28;20259;-47
2022/09/25 01:58:07;;;;;;;;;;;20.70;84.10;;;;;;5096925;28;19915;-48
2022/09/25 02:00:36;;;;;;;;;;;20.70;84.20;;;;;;5100861;28;19912;-50
2022/09/25 02:03:09;;;;;;;;;;;20.60;84.30;;;;;;5099419;28;20240;-51
2022/09/25 02:05:44;;;;;;;;;;;20.60;84.50;;;;;;5117719;28;20061;-48
2022/09/25 02:08:14;;;;;;;;;;;20.60;84.60;;;;;;5117686;28;20006;-50
2022/09/25 02:10:44;;;;;;;;;;;20.50;84.60;;;;;;5099218;28;20385;-46
2022/09/25 02:13:12;;;;;;;;;;;20.50;84.80;;;;;;5117603;28;19999;-49
2022/09/25 02:15:42;;;;;;;;;;;20.50;84.90;;;;;;5116696;28;20302;-48
2022/09/25 02:21:01;;;;;;;;;;;20.40;84.90;;;;;;5117491;28;19965;-46
2022/09/25 02:23:33;;;;;;;;;;;20.40;85.10;;;;;;5117676;28;19908;-49
2022/09/25 02:26:04;;;;;;;;;;;20.40;85.10;;;;;;5117027;28;19908;-51
2022/09/25 02:28:30;;;;;;;;;;;20.40;85.00;;;;;;5099098;28;19912;-47
2022/09/25 02:30:56;;;;;;;;;;;20.50;85.00;;;;;;5117179;28;19969;-47
2022/09/25 02:33:22;;;;;;;;;;;20.50;84.90;;;;;;5116828;28;19920;-46
2022/09/25 02:35:48;;;;;;;;;;;20.60;84.90;;;;;;5117082;28;19915;-49
2022/09/25 02:38:14;;;;;;;;;;;20.70;84.60;;;;;;5116938;28;19908;-47
2022/09/25 02:40:42;;;;;;;;;;;20.80;84.30;;;;;;5116999;28;19916;-48
2022/09/25 02:43:20;;;;;;;;;;;20.90;84.00;;;;;;5116892;28;19961;-49
2022/09/25 02:45:49;;;;;;;;;;;20.90;83.90;;;;;;5117039;28;19907;-46
2022/09/25 02:48:26;;;;;;;;;;;20.90;83.90;;;;;;5116563;28;19927;-48
2022/09/25 02:50:52;;;;;;;;;;;20.90;84.00;;;;;;5116556;28;20381;-50
2022/09/25 02:53:20;;;;;;;;;;;20.80;84.00;;;;;;5098353;28;19976;-50
2022/09/25 02:55:55;;;;;;;;;;;20.80;84.10;;;;;;5116430;28;19908;-48
2022/09/25 02:58:25;;;;;;;;;;;20.70;84.30;;;;;;5098275;28;19916;-47
2022/09/25 03:00:52;;;;;;;;;;;20.70;84.60;;;;;;5109784;28;20278;-47
2022/09/25 03:03:18;;;;;;;;;;;20.70;84.60;;;;;;5095697;28;19908;-48
2022/09/25 03:05:45;;;;;;;;;;;20.60;84.70;;;;;;5096133;28;19947;-50
2022/09/25 03:10:55;;;;;;;;;;;20.60;85.00;;;;;;5095807;28;20012;-46
2022/09/25 03:13:25;;;;;;;;;;;20.50;85.00;;;;;;5095675;28;19919;-47
2022/09/25 03:15:54;;;;;;;;;;;20.50;85.10;;;;;;5095875;28;20266;-48
2022/09/25 03:18:20;;;;;;;;;;;20.50;85.20;;;;;;5095482;28;19967;-48
2022/09/25 03:20:46;;;;;;;;;;;20.40;85.20;;;;;;5095800;28;20271;-49
2022/09/25 03:23:11;;;;;;;;;;;20.40;85.40;;;;;;5077792;28;19908;-49
2022/09/25 03:25:37;;;;;;;;;;;20.40;85.40;;;;;;5095760;28;20350;-47
2022/09/25 03:28:05;;;;;;;;;;;20.40;85.30;;;;;;5095698;28;19916;-49
2022/09/25 03:30:31;;;;;;;;;;;20.40;85.20;;;;;;5095924;28;19912;-48
2022/09/25 03:32:56;;;;;;;;;;;20.40;85.30;;;;;;5095627;28;19915;-47
2022/09/25 03:35:22;;;;;;;;;;;20.50;85.10;;;;;;5095160;28;19916;-50
2022/09/25 03:37:47;;;;;;;;;;;20.50;85.10;;;;;;5095161;28;19908;-48
2022/09/25 03:40:12;;;;;;;;;;;20.70;84.80;;;;;;5095376;28;20014;-50
2022/09/25 03:42:38;;;;;;;;;;;20.80;84.40;;;;;;5077190;28;19912;-47
2022/09/25 03:45:05;;;;;;;;;;;20.90;84.00;;;;;;5095369;28;19951;-47
2022/09/25 03:47:30;;;;;;;;;;;21.00;83.80;;;;;;5095301;28;19915;-47
2022/09/25 03:49:56;;;;;;;;;;;21.00;83.70;;;;;;5094962;28;19908;-47
2022/09/25 03:52:21;;;;;;;;;;;21.00;83.70;;;;;;5094898;28;19908;-47
2022/09/25 03:54:46;;;;;;;;;;;21.00;83.80;;;;;;5076932;28;19955;-49
2022/09/25 03:57:13;;;;;;;;;;;20.90;83.90;;;;;;5095234;28;19915;-47
2022/09/25 03:59:39;;;;;;;;;;;20.90;84.00;;;;;;5095066;28;20010;-47
2022/09/25 04:02:05;;;;;;;;;;;20.80;84.00;;;;;;5111473;28;19947;-47
2022/09/25 04:04:31;;;;;;;;;;;20.80;84.10;;;;;;5114836;28;19920;-48
2022/09/25 04:06:56;;;;;;;;;;;20.80;84.30;;;;;;5114696;28;19908;-48
2022/09/25 04:09:22;;;;;;;;;;;20.70;84.50;;;;;;5115210;28;19915;-47
2022/09/25 04:11:47;;;;;;;;;;;20.60;84.60;;;;;;5115234;28;19953;-48
2022/09/25 04:14:13;;;;;;;;;;;20.60;84.60;;;;;;5115337;28;20262;-48
2022/09/25 04:16:39;;;;;;;;;;;20.50;84.70;;;;;;5114754;28;19939;-46
2022/09/25 04:19:05;;;;;;;;;;;20.50;84.70;;;;;;5114908;28;19974;-47
2022/09/25 04:21:31;;;;;;;;;;;20.50;84.80;;;;;;5114987;28;19916;-49
2022/09/25 04:26:40;;;;;;;;;;;20.50;85.00;;;;;;5114612;28;19968;-45
2022/09/25 04:29:06;;;;;;;;;;;20.40;85.00;;;;;;5114897;28;20358;-45
2022/09/25 04:31:31;;;;;;;;;;;20.40;85.00;;;;;;5114471;28;19908;-46
2022/09/25 04:33:57;;;;;;;;;;;20.40;85.10;;;;;;5096470;28;19915;-47
2022/09/25 04:36:22;;;;;;;;;;;20.40;85.00;;;;;;5114794;28;19907;-48
2022/09/25 04:38:48;;;;;;;;;;;20.40;85.10;;;;;;5114722;28;20266;-48
2022/09/25 04:41:15;;;;;;;;;;;20.50;84.90;;;;;;5096514;28;19912;-47
2022/09/25 04:43:42;;;;;;;;;;;20.60;84.80;;;;;;5114766;28;19908;-45
2022/09/25 04:46:09;;;;;;;;;;;20.70;84.60;;;;;;5114290;28;20267;-47
2022/09/25 04:48:35;;;;;;;;;;;20.70;84.20;;;;;;5114581;28;19931;-51
2022/09/25 04:51:01;;;;;;;;;;;20.90;84.00;;;;;;5114581;28;19916;-48
2022/09/25 04:53:29;;;;;;;;;;;20.90;83.80;;;;;;5114482;28;19953;-47
2022/09/25 04:55:59;;;;;;;;;;;20.90;83.80;;;;;;5114465;28;20247;-45
2022/09/25 04:58:24;;;;;;;;;;;20.90;83.90;;;;;;5103857;28;20359;-47
2022/09/25 05:00:50;;;;;;;;;;;20.80;83.90;;;;;;5099570;28;19912;-45
2022/09/25 05:03:15;;;;;;;;;;;20.80;84.00;;;;;;5113990;28;19914;-48
2022/09/25 05:05:40;;;;;;;;;;;20.80;84.10;;;;;;5098644;28;19991;-48
2022/09/25 05:08:06;;;;;;;;;;;20.70;84.30;;;;;;5093893;28;19915;-49
2022/09/25 05:10:33;;;;;;;;;;;20.70;84.40;;;;;;5093762;28;19909;-48
2022/09/25 05:13:00;;;;;;;;;;;20.60;84.60;;;;;;5075667;28;19908;-48
2022/09/25 05:15:27;;;;;;;;;;;20.60;84.70;;;;;;5093975;28;19909;-43
2022/09/25 05:18:02;;;;;;;;;;;20.60;84.80;;;;;;5099138;28;19920;-49
2022/09/25 05:20:28;;;;;;;;;;;20.60;84.60;;;;;;5100256;28;19916;-46
2022/09/25 05:22:55;;;;;;;;;;;20.50;84.90;;;;;;5118523;28;19914;-46
2022/09/25 05:25:22;;;;;;;;;;;20.50;85.10;;;;;;5118085;28;19935;-48
2022/09/25 05:27:49;;;;;;;;;;;20.50;85.10;;;;;;5118098;28;19908;-49
2022/09/25 05:30:15;;;;;;;;;;;20.50;85.10;;;;;;5109621;28;19908;-46
2022/09/25 05:32:48;;;;;;;;;;;20.50;85.10;;;;;;5097790;28;19957;-46
2022/09/25 05:35:14;;;;;;;;;;;20.50;85.20;;;;;;5097344;28;19998;-46
2022/09/25 05:37:39;;;;;;;;;;;20.50;85.20;;;;;;5097491;28;19912;-47
2022/09/25 05:40:05;;;;;;;;;;;20.50;85.10;;;;;;5097699;28;19912;-47
2022/09/25 05:42:31;;;;;;;;;;;20.50;85.60;;;;;;5079400;28;19915;-49
2022/09/25 05:44:56;;;;;;;;;;;20.50;85.00;;;;;;5097567;28;20224;-47
2022/09/25 05:47:22;;;;;;;;;;;20.60;84.70;;;;;;5097397;28;19995;-46
2022/09/25 05:49:47;;;;;;;;;;;20.80;84.50;;;;;;5097256;28;19908;-46
2022/09/25 05:52:12;;;;;;;;;;;20.90;84.30;;;;;;5079280;28;19915;-48
2022/09/25 05:54:38;;;;;;;;;;;20.90;84.10;;;;;;5097712;28;19969;-47
2022/09/25 05:57:03;;;;;;;;;;;20.90;84.00;;;;;;5083864;28;20383;-48
2022/09/25 05:59:29;;;;;;;;;;;20.90;83.90;;;;;;5096410;28;20262;-48
2022/09/25 06:01:54;;;;;;;;;;;20.90;84.00;;;;;;5106066;28;19912;-50
2022/09/25 06:04:20;;;;;;;;;;;20.90;84.10;;;;;;5096422;28;19981;-45
2022/09/25 06:06:46;;;;;;;;;;;20.80;84.20;;;;;;5096661;28;19908;-46
2022/09/25 06:09:11;;;;;;;;;;;20.80;84.40;;;;;;5096785;28;19912;-48
2022/09/25 06:11:37;;;;;;;;;;;20.70;84.40;;;;;;5097091;28;19942;-47
2022/09/25 06:14:03;;;;;;;;;;;20.70;84.50;;;;;;5078449;28;20000;-48
2022/09/25 06:16:28;;;;;;;;;;;20.70;84.60;;;;;;5096827;28;19957;-47
2022/09/25 06:18:54;;;;;;;;;;;20.60;84.70;;;;;;5096437;28;20343;-47
2022/09/25 06:21:20;;;;;;;;;;;20.60;84.80;;;;;;5097078;28;20003;-47
2022/09/25 06:23:47;;;;;;;;;;;20.60;84.90;;;;;;5096863;28;19955;-48
2022/09/25 06:26:13;;;;;;;;;;;20.60;84.90;;;;;;5096778;28;19953;-50
2022/09/25 06:28:38;;;;;;;;;;;20.50;85.00;;;;;;5096285;28;19913;-49
2022/09/25 06:31:04;;;;;;;;;;;20.50;85.10;;;;;;5065003;28;20266;-47
2022/09/25 06:33:30;;;;;;;;;;;20.50;85.10;;;;;;5096614;28;19916;-49
2022/09/25 06:35:55;;;;;;;;;;;20.50;85.10;;;;;;5096260;28;20006;-47
2022/09/25 06:38:21;;;;;;;;;;;20.50;85.20;;;;;;5096061;28;19912;-46
2022/09/25 06:40:47;;;;;;;;;;;20.50;85.30;;;;;;5094914;28;19977;-51
2022/09/25 06:43:14;;;;;;;;;;;20.50;85.30;;;;;;5094470;28;19965;-48
2022/09/25 06:45:40;;;;;;;;;;;20.50;85.40;;;;;;5094426;28;19912;-48
2022/09/25 06:48:09;;;;;;;;;;;20.50;85.50;;;;;;5076077;28;19914;-49
2022/09/25 06:50:42;;;;;;;;;;;20.50;85.30;;;;;;5094127;28;19913;-46
2022/09/25 06:53:07;;;;;;;;;;;20.50;85.10;;;;;;5075568;28;19908;-48
2022/09/25 06:55:36;;;;;;;;;;;20.60;84.90;;;;;;5094574;28;19908;-47
2022/09/25 06:58:03;;;;;;;;;;;20.70;84.70;;;;;;5096180;28;20438;-49
2022/09/25 07:00:29;;;;;;;;;;;20.80;84.50;;;;;;5099212;28;20271;-47
2022/09/25 07:05:41;;;;;;;;;;;20.80;84.10;;;;;;5116344;28;19946;-46
2022/09/25 07:08:07;;;;;;;;;;;20.90;84.20;;;;;;5116271;28;20004;-46
2022/09/25 07:10:32;;;;;;;;;;;20.80;84.20;;;;;;5116215;28;20353;-46
2022/09/25 07:12:59;;;;;;;;;;;20.80;84.30;;;;;;5115757;28;19915;-48
2022/09/25 07:15:24;;;;;;;;;;;20.80;84.30;;;;;;5097814;28;19995;-50
2022/09/25 07:17:50;;;;;;;;;;;20.70;84.40;;;;;;5116225;28;19966;-46
2022/09/25 07:20:15;;;;;;;;;;;20.70;84.50;;;;;;5097639;28;19912;-48
2022/09/25 07:22:41;;;;;;;;;;;20.70;84.60;;;;;;5116032;28;19920;-47
2022/09/25 07:25:07;;;;;;;;;;;20.70;84.70;;;;;;5115674;28;19939;-46
2022/09/25 07:27:33;;;;;;;;;;;20.60;84.70;;;;;;5115866;28;19914;-46
2022/09/25 07:29:59;;;;;;;;;;;20.60;84.90;;;;;;5115977;28;19915;-50
2022/09/25 07:32:25;;;;;;;;;;;20.60;85.00;;;;;;5115484;28;20035;-49
2022/09/25 07:34:50;;;;;;;;;;;20.60;85.10;;;;;;5115521;28;19959;-46
2022/09/25 07:37:16;;;;;;;;;;;20.50;85.10;;;;;;5115717;28;19916;-45
2022/09/25 07:39:42;;;;;;;;;;;20.50;85.10;;;;;;5115257;28;19916;-46
2022/09/25 07:42:08;;;;;;;;;;;20.50;85.10;;;;;;5114879;28;19919;-49
2022/09/25 07:44:33;;;;;;;;;;;20.50;85.10;;;;;;5097361;28;19966;-47
2022/09/25 07:47:01;;;;;;;;;;;20.50;85.20;;;;;;5096550;28;20299;-48
2022/09/25 07:49:27;;;;;;;;;;;20.50;85.10;;;;;;5114889;28;19907;-46
2022/09/25 07:51:53;;;;;;;;;;;20.50;85.10;;;;;;5115012;28;20273;-49
2022/09/25 07:54:18;;;;;;;;;;;20.50;85.10;;;;;;5115494;28;19908;-48
2022/09/25 07:56:44;;;;;;;;;;;20.60;84.90;;;;;;5115232;28;19907;-49
2022/09/25 07:59:09;;;;;;;;;;;20.70;84.70;;;;;;5115104;28;19919;-47
2022/09/25 08:01:35;;;;;;;;;;;20.80;84.40;;;;;;5102313;28;19998;-47
2022/09/25 08:04:00;;;;;;;;;;;21.00;84.00;;;;;;5094344;28;19920;-49
2022/09/25 08:06:26;;;;;;;;;;;21.10;83.70;;;;;;5094566;28;19908;-50
2022/09/25 08:08:51;;;;;;;;;;;21.20;83.40;;;;;;5094885;28;19912;-47
2022/09/25 08:11:17;;;;;;;;;;;21.30;83.20;;;;;;5095123;28;19908;-48
2022/09/25 08:13:43;;;;;;;;;;;21.30;83.10;;;;;;5076348;28;20331;-48
2022/09/25 08:16:12;;;;;;;;;;;21.30;83.00;;;;;;5076475;28;19916;-51
2022/09/25 08:18:40;;;;;;;;;;;21.30;83.00;;;;;;5094638;28;19919;-46
2022/09/25 08:21:06;;;;;;;;;;;21.20;83.70;;;;;;5094558;28;20271;-46
2022/09/25 08:23:31;;;;;;;;;;;21.20;83.30;;;;;;5094351;28;19912;-46
2022/09/25 08:25:57;;;;;;;;;;;21.10;83.40;;;;;;5094957;28;19961;-48
2022/09/25 08:28:22;;;;;;;;;;;21.10;83.60;;;;;;5076653;28;19969;-48
2022/09/25 08:30:48;;;;;;;;;;;21.00;83.80;;;;;;5076231;28;20266;-51
2022/09/25 08:33:14;;;;;;;;;;;21.00;83.90;;;;;;5088867;28;20011;-53
2022/09/25 08:35:40;;;;;;;;;;;20.90;84.10;;;;;;5092739;28;19951;-48
2022/09/25 08:38:06;;;;;;;;;;;20.90;84.20;;;;;;5074475;28;20329;-49
2022/09/25 08:40:32;;;;;;;;;;;20.80;84.40;;;;;;5092574;28;19920;-46
2022/09/25 08:42:58;;;;;;;;;;;20.80;84.50;;;;;;5074465;28;19915;-51
2022/09/25 08:51:02;;;;;;;;;;;20.70;84.80;;;;;;5092919;28;19914;-47
2022/09/25 08:53:27;;;;;;;;;;;20.70;85.00;;;;;;5092007;28;19908;-48
2022/09/25 08:58:42;;;;;;;;;;;20.70;85.00;;;;;;5092278;28;19919;-49
2022/09/25 09:01:24;;;;;;;;;;;20.70;84.90;;;;;;5095150;28;19944;-47
2022/09/25 09:03:53;;;;;;;;;;;20.70;84.80;;;;;;5092348;28;20278;-50
2022/09/25 09:06:20;;;;;;;;;;;20.80;84.70;;;;;;5092750;28;19956;-47
2022/09/25 09:08:49;;;;;;;;;;;20.80;84.50;;;;;;5092127;28;20286;-47
2022/09/25 09:11:17;;;;;;;;;;;20.90;84.40;;;;;;5093004;28;19931;-46
2022/09/25 09:14:02;;;;;;;;;;;20.90;84.30;;;;;;5093841;28;19908;-48
2022/09/25 09:16:42;;;;;;;;;;;21.00;84.20;;;;;;5093402;28;19912;-46
2022/09/25 09:19:09;;;;;;;;;;;21.10;84.10;;;;;;5080485;28;19914;-48
2022/09/25 09:21:40;;;;;;;;;;;21.10;84.00;;;;;;5093193;28;19912;-49
2022/09/25 09:24:10;;;;;;;;;;;21.10;83.90;;;;;;5087950;28;20006;-50
2022/09/25 09:26:48;;;;;;;;;;;21.20;83.50;;;;;;5072929;28;20279;-46
2022/09/25 09:29:33;;;;;;;;;;;21.10;83.70;;;;;;5064869;28;19919;-45
2022/09/25 09:32:10;;;;;;;;;;;21.10;83.70;;;;;;5093238;28;20266;-45
2022/09/25 09:34:46;;;;;;;;;;;21.00;83.70;;;;;;5093486;28;20270;-47
2022/09/25 09:37:14;;;;;;;;;;;21.00;83.70;;;;;;5093429;28;20383;-48
2022/09/25 09:39:40;;;;;;;;;;;20.90;83.70;;;;;;5093459;28;19919;-45
2022/09/25 09:42:26;;;;;;;;;;;20.90;83.80;;;;;;5093330;28;19919;-48
2022/09/25 09:45:10;;;;;;;;;;;20.90;83.80;;;;;;5093168;28;19912;-45
2022/09/25 09:47:45;;;;;;;;;;;20.90;83.90;;;;;;5074669;28;20400;-50
2022/09/25 09:50:10;;;;;;;;;;;20.80;83.90;;;;;;5059800;28;19920;-46
2022/09/25 09:52:37;;;;;;;;;;;20.80;83.90;;;;;;5073079;28;19912;-45
2022/09/25 09:55:03;;;;;;;;;;;20.80;83.90;;;;;;5081767;28;20494;-44
2022/09/25 09:57:40;;;;;;;;;;;20.80;83.90;;;;;;5093420;28;19912;-47
2022/09/25 10:00:15;;;;;;;;;;;20.80;83.90;;;;;;5086161;28;19912;-48
2022/09/25 10:02:41;;;;;;;;;;;20.80;83.90;;;;;;5096673;28;19973;-47
2022/09/25 10:05:11;;;;;;;;;;;20.80;83.90;;;;;;5093965;28;19924;-45
2022/09/25 10:07:38;;;;;;;;;;;20.80;83.90;;;;;;5097030;28;20373;-45
2022/09/25 10:10:14;;;;;;;;;;;20.80;83.80;;;;;;5096789;28;19915;-44
2022/09/25 10:12:42;;;;;;;;;;;20.80;83.80;;;;;;5078368;28;19912;-45
2022/09/25 10:15:14;;;;;;;;;;;20.80;83.70;;;;;;5117107;28;19912;-46
2022/09/25 10:17:40;;;;;;;;;;;20.80;83.60;;;;;;5092909;28;20401;-45
2022/09/25 10:20:14;;;;;;;;;;;20.90;83.50;;;;;;5096594;28;19916;-45
2022/09/25 10:22:41;;;;;;;;;;;20.90;83.30;;;;;;5096786;28;19941;-47
2022/09/25 10:25:07;;;;;;;;;;;20.90;83.30;;;;;;5096557;28;20006;-46
2022/09/25 10:27:48;;;;;;;;;;;21.00;83.20;;;;;;5096440;28;19952;-48
2022/09/25 10:30:19;;;;;;;;;;;21.00;83.20;;;;;;5096326;28;20385;-48
2022/09/25 10:32:50;;;;;;;;;;;21.00;83.10;;;;;;5096688;28;19908;-53
2022/09/25 10:35:20;;;;;;;;;;;21.00;83.00;;;;;;5085455;28;19912;-44
2022/09/25 10:37:53;;;;;;;;;;;21.00;83.00;;;;;;5090798;28;19904;-45
2022/09/25 10:40:21;;;;;;;;;;;21.00;83.00;;;;;;5086440;28;19958;-46
2022/09/25 10:42:47;;;;;;;;;;;21.00;83.00;;;;;;5092648;28;19960;-44
2022/09/25 10:45:21;;;;;;;;;;;20.90;83.10;;;;;;5096388;28;20004;-47
2022/09/25 10:50:33;;;;;;;;;;;20.90;83.20;;;;;;5096496;28;20048;-44
2022/09/25 10:52:59;;;;;;;;;;;20.90;83.20;;;;;;5078170;28;19904;-46
2022/09/25 10:55:29;;;;;;;;;;;20.90;83.20;;;;;;5094090;28;20243;-46
2022/09/25 10:58:20;;;;;;;;;;;20.80;83.20;;;;;;5096357;28;19908;-45
2022/09/25 11:00:45;;;;;;;;;;;20.80;83.20;;;;;;5090033;28;19965;-44
2022/09/25 11:03:20;;;;;;;;;;;20.80;83.20;;;;;;5097603;28;19916;-46
2022/09/25 11:05:48;;;;;;;;;;;20.90;83.30;;;;;;5094612;28;20037;-47
2022/09/25 11:08:15;;;;;;;;;;;20.80;83.20;;;;;;5083712;28;19962;-47
2022/09/25 11:10:56;;;;;;;;;;;20.90;83.20;;;;;;5095865;28;20359;-46
2022/09/25 11:13:27;;;;;;;;;;;20.80;83.20;;;;;;5085745;28;19965;-45
2022/09/25 11:15:56;;;;;;;;;;;20.90;83.10;;;;;;5091956;28;20053;-45
2022/09/25 11:18:34;;;;;;;;;;;20.90;83.10;;;;;;5076920;28;19919;-49
2022/09/25 11:21:01;;;;;;;;;;;20.90;83.00;;;;;;5110121;28;19916;-48
2022/09/25 11:23:27;;;;;;;;;;;20.90;83.00;;;;;;5115625;28;20010;-48
2022/09/25 11:26:05;;;;;;;;;;;21.00;83.00;;;;;;5083543;28;19963;-48
2022/09/25 11:28:33;;;;;;;;;;;21.00;82.90;;;;;;5094528;28;19920;-49
2022/09/25 11:31:02;;;;;;;;;;;21.00;82.90;;;;;;5095678;28;20378;-46
2022/09/25 11:34:06;;;;;;;;;;;21.00;82.80;;;;;;5110143;28;19912;-50
2022/09/25 11:36:38;;;;;;;;;;;21.00;82.90;;;;;;5032899;28;19917;-50
2022/09/25 11:42:00;;;;;;;;;;;21.00;82.90;;;;;;5064000;28;19930;-49
2022/09/25 11:44:46;;;;;;;;;;;20.90;82.90;;;;;;5093427;28;19916;-49
2022/09/25 11:47:16;;;;;;;;;;;20.90;82.90;;;;;;5091034;28;20369;-50
2022/09/25 11:49:42;;;;;;;;;;;20.90;82.90;;;;;;5089424;28;20402;-48
2022/09/25 11:52:21;;;;;;;;;;;20.90;83.00;;;;;;5075381;28;19908;-46
2022/09/25 11:55:05;;;;;;;;;;;20.90;83.00;;;;;;5089782;28;19909;-49
2022/09/25 11:57:50;;;;;;;;;;;20.90;83.00;;;;;;5075238;28;19948;-49
2022/09/25 12:00:15;;;;;;;;;;;20.90;83.00;;;;;;5093988;28;20015;-47
2022/09/25 12:02:54;;;;;;;;;;;20.90;83.10;;;;;;5062370;28;19939;-48
2022/09/25 12:05:20;;;;;;;;;;;20.90;83.10;;;;;;5091752;28;19927;-50
2022/09/25 12:07:45;;;;;;;;;;;20.90;83.10;;;;;;5075482;28;19908;-48
2022/09/25 12:10:18;;;;;;;;;;;20.90;83.10;;;;;;5076079;28;20003;-53
2022/09/25 12:12:49;;;;;;;;;;;20.90;83.10;;;;;;5105436;28;19939;-50
2022/09/25 12:15:30;;;;;;;;;;;20.90;83.10;;;;;;5110439;28;19912;-48
2022/09/25 12:18:16;;;;;;;;;;;20.90;83.10;;;;;;5085302;28;19922;-49
2022/09/25 12:20:41;;;;;;;;;;;20.90;83.00;;;;;;5038900;28;19943;-49
2022/09/25 12:23:33;;;;;;;;;;;20.90;83.00;;;;;;5103160;28;20006;-49
2022/09/25 12:26:15;;;;;;;;;;;20.90;83.10;;;;;;5072568;28;19959;-50
2022/09/25 12:28:52;;;;;;;;;;;20.90;83.10;;;;;;5114158;28;19915;-50
2022/09/25 12:31:22;;;;;;;;;;;20.90;83.10;;;;;;5113614;28;20002;-52
2022/09/25 12:34:03;;;;;;;;;;;20.80;83.10;;;;;;5103983;28;20003;-50
2022/09/25 12:36:35;;;;;;;;;;;20.80;83.10;;;;;;5096345;28;19912;-47
2022/09/25 12:39:19;;;;;;;;;;;20.90;83.10;;;;;;5079446;28;19924;-48
2022/09/25 12:41:49;;;;;;;;;;;20.80;83.10;;;;;;5074966;28;20010;-48
2022/09/25 12:44:17;;;;;;;;;;;20.80;83.10;;;;;;5093259;28;19904;-49
2022/09/25 12:46:42;;;;;;;;;;;20.80;83.20;;;;;;5098925;28;19908;-47
2022/09/25 12:49:24;;;;;;;;;;;20.80;83.10;;;;;;5114545;28;19922;-48
2022/09/25 12:51:50;;;;;;;;;;;20.80;83.20;;;;;;5071253;28;20365;-46
2022/09/25 12:54:28;;;;;;;;;;;20.80;83.20;;;;;;5090523;28;19947;-50
2022/09/25 12:57:03;;;;;;;;;;;20.80;83.20;;;;;;5085916;28;19908;-46
2022/09/25 12:59:47;;;;;;;;;;;20.80;83.20;;;;;;5104925;28;20003;-48
2022/09/25 13:02:18;;;;;;;;;;;20.80;83.30;;;;;;5102608;28;19908;-47
2022/09/25 13:04:49;;;;;;;;;;;20.80;83.30;;;;;;5095781;28;19920;-48
2022/09/25 13:07:31;;;;;;;;;;;20.80;83.40;;;;;;5071888;28;19915;-48
2022/09/25 13:09:56;;;;;;;;;;;20.80;83.50;;;;;;5094019;28;19905;-47
2022/09/25 13:12:32;;;;;;;;;;;20.80;83.60;;;;;;5093946;28;20338;-51
2022/09/25 13:15:00;;;;;;;;;;;20.80;83.60;;;;;;5080611;28;19980;-48
2022/09/25 13:17:26;;;;;;;;;;;20.80;83.80;;;;;;5114067;28;19903;-47
2022/09/25 13:19:51;;;;;;;;;;;20.80;83.80;;;;;;5094528;28;19912;-47
2022/09/25 13:22:19;;;;;;;;;;;20.80;83.90;;;;;;5093802;28;19916;-48
2022/09/25 13:24:49;;;;;;;;;;;20.70;83.80;;;;;;5110428;28;19908;-46
2022/09/25 13:27:21;;;;;;;;;;;20.80;84.00;;;;;;5110645;28;19915;-46
2022/09/25 13:29:54;;;;;;;;;;;20.80;83.90;;;;;;5106488;28;19908;-44
2022/09/25 13:32:23;;;;;;;;;;;20.80;84.00;;;;;;5093547;28;19904;-45
2022/09/25 13:34:54;;;;;;;;;;;20.80;83.90;;;;;;5113202;28;19915;-44
2022/09/25 13:37:22;;;;;;;;;;;20.80;83.90;;;;;;5104700;28;19908;-49
2022/09/25 13:42:42;;;;;;;;;;;20.80;84.00;;;;;;5100351;28;19974;-47
2022/09/25 13:45:20;;;;;;;;;;;20.80;84.10;;;;;;5097649;28;20006;-50
2022/09/25 13:47:48;;;;;;;;;;;20.80;84.10;;;;;;5115726;28;19955;-46
2022/09/25 13:50:25;;;;;;;;;;;20.70;84.10;;;;;;5117667;28;19994;-47
2022/09/25 13:53:15;;;;;;;;;;;20.70;84.30;;;;;;5099442;28;19954;-48
2022/09/25 13:55:41;;;;;;;;;;;20.70;84.40;;;;;;5078221;28;19912;-44
2022/09/25 13:58:36;;;;;;;;;;;20.70;84.30;;;;;;5097067;28;19909;-44
2022/09/25 14:01:09;;;;;;;;;;;20.70;84.30;;;;;;5032383;28;19921;-48
2022/09/25 14:03:48;;;;;;;;;;;20.70;84.30;;;;;;5098661;28;19911;-48
2022/09/25 14:06:25;;;;;;;;;;;20.70;84.20;;;;;;5096864;28;19963;-52
2022/09/25 14:08:54;;;;;;;;;;;20.70;84.30;;;;;;5097082;28;19931;-50
2022/09/25 14:11:23;;;;;;;;;;;20.70;84.40;;;;;;5097399;28;19908;-50
2022/09/25 14:13:50;;;;;;;;;;;20.70;84.30;;;;;;5097927;28;19999;-47
2022/09/25 14:16:24;;;;;;;;;;;20.70;84.40;;;;;;5078821;28;19915;-49
2022/09/25 14:18:52;;;;;;;;;;;20.70;84.40;;;;;;5076795;28;19912;-46
2022/09/25 14:21:19;;;;;;;;;;;20.70;84.50;;;;;;5076795;28;19916;-50
2022/09/25 14:23:48;;;;;;;;;;;20.70;84.50;;;;;;5093987;28;19908;-51
2022/09/25 14:26:17;;;;;;;;;;;20.70;84.50;;;;;;5096815;28;19915;-48
2022/09/25 14:28:46;;;;;;;;;;;20.70;84.60;;;;;;5096452;28;19916;-48
2022/09/25 14:31:28;;;;;;;;;;;20.70;84.60;;;;;;5096463;28;20402;-52
2022/09/25 14:33:54;;;;;;;;;;;20.70;84.70;;;;;;5096035;28;20001;-50
2022/09/25 14:36:27;;;;;;;;;;;20.70;84.60;;;;;;5101300;28;20006;-52
2022/09/25 14:39:04;;;;;;;;;;;20.70;84.70;;;;;;5116707;28;19912;-50
2022/09/25 14:41:48;;;;;;;;;;;20.70;84.70;;;;;;5115690;28;19921;-45
2022/09/25 14:44:16;;;;;;;;;;;20.70;84.80;;;;;;5096480;28;20010;-48
2022/09/25 14:46:43;;;;;;;;;;;20.70;84.80;;;;;;5096154;28;19916;-47
2022/09/25 14:49:17;;;;;;;;;;;20.70;84.90;;;;;;5101614;28;19912;-46
2022/09/25 14:51:43;;;;;;;;;;;20.70;84.90;;;;;;5112851;28;19916;-46
2022/09/25 14:54:18;;;;;;;;;;;20.70;84.90;;;;;;5098470;28;19908;-44
2022/09/25 14:56:47;;;;;;;;;;;20.70;84.90;;;;;;5098174;28;20010;-44
2022/09/25 14:59:15;;;;;;;;;;;20.70;84.90;;;;;;5105301;28;20393;-47